Portada
METAR-TAF:

METAR-TAF

Aeropuertos :

Aeropuerto de Menorca

Menorca, España

latitud: 39-52N, longitud: 004-14E, altitud: 87 m

Observación

El informe se hizo hace 20 minutos, a las 22:30 UTC
Viento 8 kt del suroeste
Temperatura 20°C
Humedad 68%
Presión 1019 hPa
Visibilidad 10 km o más
Escasas nubes a una altura de 3200 ft

METAR: LEMH 162230Z 22008KT 9999 FEW032 20/14 Q1019

Hora: 00:50 (22:50 UTC)

Pronóstico

El informe se hizo hace 2 horas y 50 minutos, a las 20:00 UTC
Pronóstico válido del 16 a las 21 UTC al 17 a las 21 UTC
Viento 10 kt del sur-suroeste
Visibilidad 10 km o más
Escasas nubes a una altura de 3000 ft
Temporalmente
del 17 a las 02 UTC al 17 a las 08 UTC
Viento 5 kt del sur

TAF: LEMH 162000Z 1621/1721 20010KT 9999 FEW030 TX23/1712Z TN16/1706Z TEMPO 1702/1708 18005KT

Observaciones y pronósticos meteorológicos de más de 4000 aeropuertos (mensajes METAR y TAF).

Los puntos amarillos y rojos representan las estaciones disponibles.

Ponga el ratón en el punto deseado para ver el nombre de la estación.

Haga clic para ver las observaciones y los pronósticos meteorológicos.

Para cambiar el mapa : haga clic en los botones verdes con una cruz de color negro para hacer un zoom, en el botón verde con un guión para alejar o en las flechas verdes para mapas adyacentes.


METAR-TAF: